Time;durP1;ratioP1;P1;durP2;ratioP2;P2;SDS_P1;SDS_P2;PMS_P1;PMS_P2;Temp;Humidity;BMP_temperature;BMP_pressure;BME280_temperature;BME280_humidity;BME280_pressure;Samples;Min_cycle;Max_cycle;Signal;HPM_P1;HPM_P2
2021/10/23 00:00:34;;;;;;;30.23;11.60;;;;;;;8.80;59.31;99192.10;1731484;82;21020;-73
2021/10/23 00:03:08;;;;;;;25.32;10.70;;;;;;;8.79;59.43;99194.59;1730027;82;21114;-73
2021/10/23 00:05:35;;;;;;;24.50;10.95;;;;;;;8.80;59.51;99195.41;1731871;82;21009;-72
2021/10/23 00:08:02;;;;;;;30.43;11.75;;;;;;;8.81;59.53;99190.14;1733145;82;21175;-73
2021/10/23 00:10:29;;;;;;;28.15;10.80;;;;;;;8.80;59.53;99178.92;1731475;80;21031;-73
2021/10/23 00:13:04;;;;;;;20.37;10.35;;;;;;;8.80;59.58;99178.92;1734265;82;21048;-74
2021/10/23 00:15:34;;;;;;;21.53;9.93;;;;;;;8.79;59.55;99173.16;1650826;85;21095;-73
2021/10/23 00:18:00;;;;;;;21.25;9.70;;;;;;;8.80;59.53;99166.56;1651338;84;20996;-74
2021/10/23 00:20:30;;;;;;;21.62;10.10;;;;;;;8.80;59.48;99163.81;1674394;85;21523;-74
2021/10/23 00:22:57;;;;;;;27.55;10.30;;;;;;;8.79;59.46;99162.17;1648104;84;21075;-74
2021/10/23 00:25:23;;;;;;;28.90;10.05;;;;;;;8.79;59.34;99158.05;1648193;85;21027;-74
2021/10/23 00:27:55;;;;;;;25.20;9.70;;;;;;;8.79;59.43;99158.05;1676899;85;21592;-74
2021/10/23 00:30:24;;;;;;;29.37;10.05;;;;;;;8.79;59.32;99152.00;1690599;84;21120;-73
2021/10/23 00:32:51;;;;;;;20.55;9.43;;;;;;;8.79;59.32;99155.30;1670504;85;22190;-73
2021/10/23 00:35:25;;;;;;;34.13;10.70;;;;;;;8.79;59.28;99155.30;1671670;84;21068;-73
2021/10/23 00:37:53;;;;;;;23.90;11.85;;;;;;;8.75;59.24;99160.65;1635668;85;21071;-72
2021/10/23 00:40:21;;;;;;;29.18;11.85;;;;;;;8.75;59.12;99162.81;1660044;84;21087;-73
2021/10/23 00:42:52;;;;;;;23.22;10.45;;;;;;;8.73;59.04;99158.77;1660477;85;21047;-73
2021/10/23 00:45:24;;;;;;;20.70;8.90;;;;;;;8.68;59.03;99162.48;1689892;84;21037;-73
2021/10/23 00:47:51;;;;;;;23.15;9.60;;;;;;;8.66;58.99;99170.22;1632968;85;21052;-73
2021/10/23 00:50:22;;;;;;;20.12;9.85;;;;;;;8.62;58.98;99174.16;1677028;84;21104;-73
2021/10/23 00:52:54;;;;;;;21.68;9.38;;;;;;;8.59;58.88;99169.84;1669275;85;21031;-73
2021/10/23 00:55:23;;;;;;;21.90;9.10;;;;;;;8.56;58.89;99173.23;1673042;85;21050;-73
2021/10/23 00:57:53;;;;;;;20.57;8.55;;;;;;;8.51;58.92;99169.45;1657853;85;21477;-73
2021/10/23 01:00:30;;;;;;;23.42;9.05;;;;;;;8.46;59.09;99172.91;1688792;84;21061;-72
2021/10/23 01:03:02;;;;;;;18.23;7.78;;;;;;;8.41;59.07;99176.58;1664834;84;21041;-73
2021/10/23 01:05:33;;;;;;;16.65;8.13;;;;;;;8.36;59.00;99181.64;1649989;84;21089;-73
2021/10/23 01:08:05;;;;;;;20.70;8.13;;;;;;;8.32;58.97;99177.09;1656969;85;21067;-73
2021/10/23 01:10:35;;;;;;;23.07;8.98;;;;;;;8.27;58.93;99181.58;1688708;84;21580;-73
2021/10/23 01:13:10;;;;;;;18.67;8.20;;;;;;;8.24;58.78;99180.84;1669973;85;21441;-73
2021/10/23 01:15:40;;;;;;;18.80;7.85;;;;;;;8.22;58.71;99185.03;1697247;83;21001;-73
2021/10/23 01:18:10;;;;;;;26.35;8.88;;;;;;;8.19;58.63;99182.33;1706772;83;21060;-73
2021/10/23 01:20:42;;;;;;;19.95;8.28;;;;;;;8.16;58.47;99184.34;1705647;83;21512;-74
2021/10/23 01:23:11;;;;;;;15.83;7.60;;;;;;;8.12;58.30;99188.84;1704465;83;21044;-74
2021/10/23 01:25:40;;;;;;;20.30;8.23;;;;;;;8.08;58.20;99186.45;1728429;81;21025;-74
2021/10/23 01:28:10;;;;;;;19.20;7.67;;;;;;;8.04;58.20;99185.72;1713447;83;21092;-74
2021/10/23 01:30:39;;;;;;;19.62;8.08;;;;;;;8.00;58.23;99183.91;1688274;83;21095;-73
2021/10/23 01:33:07;;;;;;;26.15;8.30;;;;;;;7.97;58.28;99178.47;1699192;83;21024;-73
2021/10/23 01:35:36;;;;;;;18.20;8.83;;;;;;;7.94;58.25;99176.35;1710904;83;21030;-73
2021/10/23 01:38:04;;;;;;;17.98;8.03;;;;;;;7.90;58.27;99172.05;1720483;83;21012;-73
2021/10/23 01:40:33;;;;;;;18.55;7.90;;;;;;;7.87;58.29;99169.92;1723401;82;21030;-73
2021/10/23 01:43:06;;;;;;;19.73;8.20;;;;;;;7.85;58.30;99169.42;1719559;82;21077;-73
2021/10/23 01:45:33;;;;;;;22.77;8.60;;;;;;;7.81;58.39;99162.13;1726080;82;21038;-73
2021/10/23 01:48:09;;;;;;;17.02;8.58;;;;;;;7.77;58.50;99170.16;1718925;82;21020;-74
2021/10/23 01:50:38;;;;;;;17.98;8.10;;;;;;;7.73;58.50;99165.85;1727619;82;21069;-74
2021/10/23 01:53:10;;;;;;;22.60;8.13;;;;;;;7.70;58.63;99167.02;1695873;82;21025;-74
2021/10/23 01:55:39;;;;;;;17.35;8.43;;;;;;;7.54;58.93;99165.45;1704752;83;21057;-73
2021/10/23 01:58:09;;;;;;;13.60;7.03;;;;;;;7.40;59.32;99168.78;1699280;83;21070;-73
2021/10/23 02:00:37;;;;;;;16.73;7.60;;;;;;;7.32;59.58;99172.25;1712571;83;21033;-72
2021/10/23 02:03:05;;;;;;;16.42;7.40;;;;;;;7.29;59.59;99166.27;1696575;83;21008;-73
2021/10/23 02:05:34;;;;;;;15.20;6.78;;;;;;;7.30;59.57;99172.56;1710316;83;21541;-73
2021/10/23 02:08:06;;;;;;;21.52;7.50;;;;;;;7.31;59.47;99167.33;1710656;82;21536;-73
2021/10/23 02:10:35;;;;;;;15.85;7.15;;;;;;;7.30;59.36;99167.08;1710859;82;21001;-73
2021/10/23 02:13:05;;;;;;;12.90;6.67;;;;;;;7.29;59.35;99169.55;1712988;82;21116;-73
2021/10/23 02:15:33;;;;;;;18.30;7.47;;;;;;;7.27;59.38;99173.97;1709174;83;21012;-73
2021/10/23 02:18:04;;;;;;;17.00;6.95;;;;;;;7.27;59.59;99163.01;1710084;83;21574;-73
2021/10/23 02:20:34;;;;;;;13.50;6.65;;;;;;;7.27;59.63;99167.12;1722057;82;21084;-73
2021/10/23 02:23:04;;;;;;;15.72;7.20;;;;;;;7.25;59.69;99167.19;1711641;82;21056;-73
2021/10/23 02:25:33;;;;;;;14.98;7.47;;;;;;;7.21;59.84;99172.47;1724264;82;21165;-73
2021/10/23 02:28:01;;;;;;;18.42;7.35;;;;;;;7.18;59.96;99167.02;1724919;82;21044;-73
2021/10/23 02:30:30;;;;;;;23.07;8.18;;;;;;;7.20;60.06;99176.88;1720807;82;21097;-73
2021/10/23 02:33:00;;;;;;;22.32;7.90;;;;;;;7.20;60.08;99182.37;1715274;82;21044;-72
2021/10/23 02:35:26;;;;;;;15.10;8.50;;;;;;;7.20;60.14;99174.94;1715405;82;20977;-73
2021/10/23 02:37:56;;;;;;;18.98;8.20;;;;;;;7.21;60.20;99183.42;1717378;81;21058;-73
2021/10/23 02:40:27;;;;;;;21.12;8.73;;;;;;;7.20;60.23;99185.11;1714970;82;21093;-74
2021/10/23 02:42:59;;;;;;;17.67;7.45;;;;;;;7.15;60.30;99189.56;1714351;82;21521;-73
2021/10/23 02:45:31;;;;;;;18.07;7.85;;;;;;;7.12;60.44;99185.24;1714472;82;21025;-72
2021/10/23 02:48:01;;;;;;;18.98;8.50;;;;;;;7.08;60.53;99193.84;1715802;82;21540;-73
2021/10/23 02:50:33;;;;;;;20.12;8.15;;;;;;;7.04;60.67;99197.19;1714574;82;21041;-72
2021/10/23 02:55:39;;;;;;;19.12;8.18;;;;;;;6.97;60.96;99193.21;1717555;82;21540;-73
2021/10/23 02:58:11;;;;;;;20.82;8.38;;;;;;;6.94;61.08;99192.70;1715052;82;21585;-73
2021/10/23 03:00:44;;;;;;;15.70;8.15;;;;;;;6.93;61.17;99191.63;1717986;83;21017;-72
2021/10/23 03:03:14;;;;;;;13.13;7.08;;;;;;;6.94;61.14;99191.91;1717435;82;21154;-72
2021/10/23 03:05:50;;;;;;;14.50;7.55;;;;;;;6.95;61.05;99186.67;1704765;83;21065;-73
2021/10/23 03:08:16;;;;;;;15.70;7.42;;;;;;;6.94;61.00;99187.80;1717909;82;20996;-74
2021/10/23 03:10:49;;;;;;;19.60;7.70;;;;;;;6.94;60.95;99180.95;1718720;81;21502;-73
2021/10/23 03:13:18;;;;;;;22.55;8.18;;;;;;;6.93;60.89;99186.16;1709833;82;21081;-73
2021/10/23 03:15:49;;;;;;;17.95;8.03;;;;;;;6.92;60.82;99185.36;1714654;83;22139;-74
2021/10/23 03:18:22;;;;;;;17.73;8.50;;;;;;;6.88;60.76;99178.86;1701214;83;20986;-73
2021/10/23 03:20:51;;;;;;;19.00;7.72;;;;;;;6.84;60.78;99182.52;1713994;83;21013;-73
2021/10/23 03:23:24;;;;;;;17.95;7.92;;;;;;;6.80;60.85;99179.56;1714224;83;20998;-73
2021/10/23 03:25:54;;;;;;;17.77;8.80;;;;;;;6.75;60.91;99184.59;1710863;83;21060;-73
2021/10/23 03:28:20;;;;;;;23.55;9.20;;;;;;;6.73;61.00;99180.52;1714107;83;21168;-73
2021/10/23 03:30:52;;;;;;;19.23;8.35;;;;;;;6.70;60.99;99181.94;1712575;83;21033;-74
2021/10/23 03:33:23;;;;;;;16.50;8.18;;;;;;;6.65;61.02;99179.30;1714352;83;21033;-73
2021/10/23 03:35:58;;;;;;;26.02;9.23;;;;;;;6.58;61.10;99176.38;1710052;83;21002;-74
2021/10/23 03:38:26;;;;;;;22.50;8.55;;;;;;;6.52;61.17;99181.70;1712395;83;21044;-74
2021/10/23 03:40:55;;;;;;;14.78;8.60;;;;;;;6.46;61.36;99182.91;1703710;83;21078;-74
2021/10/23 03:43:29;;;;;;;22.25;8.73;;;;;;;6.40;61.49;99189.02;1710904;83;20997;-73
2021/10/23 03:45:55;;;;;;;22.40;9.13;;;;;;;6.35;61.60;99179.53;1711085;83;21132;-73
2021/10/23 03:48:24;;;;;;;18.77;7.72;;;;;;;6.30;61.66;99187.83;1711999;83;21052;-73
2021/10/23 03:50:52;;;;;;;16.67;7.55;;;;;;;6.26;61.67;99184.08;1703446;83;21024;-73
2021/10/23 03:53:23;;;;;;;17.87;8.20;;;;;;;6.21;61.66;99189.88;1714572;83;21073;-72
2021/10/23 03:55:51;;;;;;;17.73;8.10;;;;;;;6.18;61.68;99200.05;1696543;83;21018;-73
2021/10/23 03:58:26;;;;;;;15.35;7.70;;;;;;;6.13;61.69;99191.11;1712837;83;21065;-72
2021/10/23 04:00:55;;;;;;;20.50;8.00;;;;;;;6.09;61.80;99198.55;1711968;83;21198;-73
2021/10/23 04:03:25;;;;;;;12.33;6.75;;;;;;;6.06;61.83;99200.52;1714713;82;21022;-73
2021/10/23 04:05:53;;;;;;;16.02;7.58;;;;;;;6.05;61.85;99207.66;1694598;83;21093;-73
2021/10/23 04:08:22;;;;;;;17.67;7.42;;;;;;;6.02;61.87;99195.34;1713220;83;21604;-73
2021/10/23 04:10:49;;;;;;;16.32;7.67;;;;;;;6.01;61.82;99189.62;1714826;81;21017;-73
2021/10/23 04:13:19;;;;;;;23.47;7.47;;;;;;;6.02;61.89;99186.34;1712323;83;21036;-72
2021/10/23 04:15:52;;;;;;;15.48;6.90;;;;;;;6.02;61.92;99178.92;1712975;82;21040;-72
2021/10/23 04:18:25;;;;;;;20.48;8.55;;;;;;;6.03;61.93;99194.25;1715027;82;21136;-73
2021/10/23 04:20:54;;;;;;;;;;;;;;;6.05;61.97;99200.81;1717937;82;21037;-72
2021/10/23 04:23:24;;;;;;;19.67;8.30;;;;;;;6.05;61.88;99197.53;1718195;82;20482;-71
2021/10/23 04:25:56;;;;;;;16.07;7.08;;;;;;;6.06;61.96;99201.06;1714410;82;21013;-73
2021/10/23 04:28:24;;;;;;;16.02;6.45;;;;;;;6.05;61.83;99208.48;1718738;82;21441;-73
2021/10/23 04:30:52;;;;;;;13.95;6.62;;;;;;;6.06;61.70;99204.62;1718858;82;21482;-72
2021/10/23 04:33:26;;;;;;;13.55;6.10;;;;;;;6.08;61.62;99203.77;1717703;82;21037;-71
2021/10/23 04:35:53;;;;;;;17.45;6.20;;;;;;;6.08;61.51;99205.14;1716996;82;21059;-73
2021/10/23 04:38:24;;;;;;;16.62;6.40;;;;;;;6.07;61.42;99210.91;1714605;82;21368;-73
2021/10/23 04:40:56;;;;;;;10.75;5.65;;;;;;;6.06;61.37;99212.83;1715594;82;21848;-73
2021/10/23 04:43:32;;;;;;;18.02;7.00;;;;;;;6.06;61.28;99219.66;1716393;81;21033;-72
2021/10/23 04:46:05;;;;;;;15.23;6.80;;;;;;;6.05;61.20;99226.26;1709258;82;21263;-73
2021/10/23 04:48:35;;;;;;;18.77;6.55;;;;;;;6.05;61.12;99235.01;1716402;82;21033;-73
2021/10/23 04:51:03;;;;;;;20.37;6.50;;;;;;;6.04;61.14;99236.89;1684954;82;21490;-72
2021/10/23 04:53:32;;;;;;;25.15;7.50;;;;;;;6.05;61.10;99233.09;1716828;82;20994;-73
2021/10/23 04:56:01;;;;;;;13.60;6.08;;;;;;;6.06;60.99;99233.34;1698142;82;21010;-73
2021/10/23 04:58:30;;;;;;;19.17;7.08;;;;;;;6.09;60.97;99229.19;1698318;82;21185;-72
2021/10/23 05:01:05;;;;;;;14.83;6.65;;;;;;;6.11;60.85;99235.18;1713692;82;21068;-73
2021/10/23 05:03:40;;;;;;;18.12;7.28;;;;;;;6.13;60.80;99240.35;1712589;82;21084;-72
2021/10/23 05:06:16;;;;;;;27.75;5.92;;;;;;;6.14;60.66;99237.31;1710064;82;21001;-72
2021/10/23 05:08:47;;;;;;;17.92;7.65;;;;;;;6.16;60.66;99234.31;1710672;82;21489;-72
2021/10/23 05:11:14;;;;;;;13.68;6.55;;;;;;;6.17;60.59;99235.92;1709717;82;21010;-72
2021/10/23 05:13:45;;;;;;;21.62;6.83;;;;;;;6.17;60.47;99232.64;1694748;82;21081;-72
2021/10/23 05:16:14;;;;;;;27.25;8.48;;;;;;;6.21;60.41;99243.78;1715102;82;22151;-73
2021/10/23 05:18:42;;;;;;;30.62;10.65;;;;;;;6.23;60.37;99245.67;1714334;82;21079;-72
2021/10/23 05:21:11;;;;;;;29.95;12.75;;;;;;;6.24;60.26;99247.31;1716698;82;21010;-73
2021/10/23 05:23:41;;;;;;;26.00;11.43;;;;;;;6.24;60.21;99258.26;1702050;82;21014;-72
2021/10/23 05:26:09;;;;;;;23.12;10.30;;;;;;;6.26;60.14;99265.59;1715166;82;21005;-72
2021/10/23 05:28:38;;;;;;;22.75;10.40;;;;;;;6.27;60.15;99260.39;1714389;82;21009;-73
2021/10/23 05:31:17;;;;;;;27.58;10.18;;;;;;;6.28;60.07;99271.59;1716792;82;21509;-73
2021/10/23 05:33:48;;;;;;;26.93;10.38;;;;;;;6.29;60.11;99272.41;1692005;82;21095;-73
2021/10/23 05:36:18;;;;;;;28.02;11.40;;;;;;;6.30;60.04;99276.21;1717040;82;21013;-73
2021/10/23 05:38:45;;;;;;;27.07;11.03;;;;;;;6.33;59.90;99279.72;1714887;82;21044;-72
2021/10/23 05:41:18;;;;;;;37.67;15.23;;;;;;;6.37;59.85;99283.22;1716578;82;21096;-73
2021/10/23 05:43:47;;;;;;;46.05;15.45;;;;;;;6.40;59.79;99293.57;1717125;82;21502;-73
2021/10/23 05:46:13;;;;;;;30.90;12.68;;;;;;;6.42;59.68;99293.55;1723343;82;21824;-72
2021/10/23 05:48:45;;;;;;;29.20;10.75;;;;;;;6.47;59.70;99287.72;1729675;82;21072;-72
2021/10/23 05:51:11;;;;;;;19.87;9.40;;;;;;;6.55;59.73;99297.44;1686344;82;21021;-72
2021/10/23 05:53:38;;;;;;;23.20;8.73;;;;;;;6.64;59.74;99294.02;1730774;82;21045;-72
2021/10/23 05:56:10;;;;;;;20.20;8.50;;;;;;;6.74;59.38;99291.11;1710254;82;21092;-73
2021/10/23 05:58:41;;;;;;;19.73;8.50;;;;;;;6.86;59.20;99298.86;1718824;82;21946;-73
2021/10/23 06:01:14;;;;;;;23.98;9.20;;;;;;;6.96;59.12;99284.16;1713447;82;21009;-72
2021/10/23 06:03:44;;;;;;;27.02;10.40;;;;;;;7.06;58.61;99283.98;1711466;82;21044;-73
2021/10/23 06:06:20;;;;;;;26.73;11.75;;;;;;;7.17;58.44;99283.80;1711303;82;21052;-74
2021/10/23 06:08:52;;;;;;;30.65;12.30;;;;;;;7.25;58.13;99280.34;1712280;82;21108;-74
2021/10/23 06:11:30;;;;;;;34.30;13.75;;;;;;;7.37;57.97;99274.94;1713592;82;21147;-74
2021/10/23 06:13:58;;;;;;;26.25;12.25;;;;;;;7.47;57.89;99283.51;1707864;81;21061;-74
2021/10/23 06:16:26;;;;;;;24.67;10.58;;;;;;;7.59;57.47;99292.59;1694388;82;21116;-74
2021/10/23 06:18:55;;;;;;;25.60;11.80;;;;;;;7.68;57.15;99292.12;1713447;82;21017;-74
2021/10/23 06:21:28;;;;;;;26.60;12.50;;;;;;;7.77;57.25;99295.78;1711372;82;21045;-74
2021/10/23 06:23:57;;;;;;;24.40;10.37;;;;;;;7.88;56.82;99303.22;1709882;82;21155;-73
2021/10/23 06:26:25;;;;;;;21.62;8.63;;;;;;;7.95;56.70;99312.40;1711544;82;21089;-74
2021/10/23 06:29:04;;;;;;;17.48;6.83;;;;;;;8.05;56.46;99311.39;1717650;81;20990;-73
2021/10/23 06:31:39;;;;;;;15.83;6.58;;;;;;;8.17;56.52;99319.09;1715302;82;21040;-74
2021/10/23 06:34:13;;;;;;;18.77;6.33;;;;;;;8.27;55.92;99320.78;1721130;82;21124;-73
2021/10/23 06:36:43;;;;;;;16.77;5.92;;;;;;;8.36;55.66;99315.37;1711154;82;21999;-74
2021/10/23 06:39:21;;;;;;;15.45;5.78;;;;;;;8.45;55.11;99317.62;1711746;82;21056;-74
2021/10/23 06:41:52;;;;;;;17.70;6.78;;;;;;;8.54;54.99;99316.32;1716771;82;21052;-74
2021/10/23 06:44:30;;;;;;;26.00;6.10;;;;;;;8.62;54.84;99314.78;1712574;82;21015;-73
2021/10/23 06:47:00;;;;;;;14.68;5.97;;;;;;;8.71;54.38;99318.41;1713139;82;21029;-76
2021/10/23 06:49:27;;;;;;;16.73;6.72;;;;;;;8.79;54.03;99313.27;1715041;82;21110;-74
2021/10/23 06:51:55;;;;;;;13.40;5.20;;;;;;;8.83;53.54;99312.35;1716503;82;21077;-75
2021/10/23 06:54:23;;;;;;;15.50;5.47;;;;;;;8.87;53.75;99318.03;1688085;84;21088;-74
2021/10/23 06:56:53;;;;;;;11.97;5.53;;;;;;;8.92;53.51;99316.53;1713880;82;21040;-74
2021/10/23 06:59:23;;;;;;;21.40;6.35;;;;;;;8.98;53.68;99319.39;1706757;82;21107;-75
2021/10/23 07:01:56;;;;;;;8.48;4.25;;;;;;;9.09;53.54;99328.16;1712025;82;21182;-75
2021/10/23 07:04:27;;;;;;;14.25;4.87;;;;;;;9.22;52.78;99325.09;1712120;83;21045;-75
2021/10/23 07:06:53;;;;;;;22.35;5.22;;;;;;;9.28;52.34;99324.38;1716742;83;21053;-74
2021/10/23 07:09:31;;;;;;;22.17;4.83;;;;;;;9.32;51.65;99322.63;1694330;82;21300;-74
2021/10/23 07:12:04;;;;;;;22.32;5.22;;;;;;;9.35;51.52;99335.74;1712709;83;21580;-73
2021/10/23 07:14:34;;;;;;;14.03;5.10;;;;;;;9.40;51.42;99337.53;1717896;82;21069;-74
2021/10/23 07:17:05;;;;;;;26.52;6.42;;;;;;;9.49;51.10;99338.95;1715370;82;21024;-72
2021/10/23 07:19:32;;;;;;;15.32;5.50;;;;;;;9.56;50.65;99346.75;1703965;83;21053;-75
2021/10/23 07:22:02;;;;;;;15.80;4.92;;;;;;;9.60;50.49;99343.63;1706234;83;21075;-73
2021/10/23 07:24:34;;;;;;;17.85;5.17;;;;;;;9.64;50.86;99344.59;1697099;83;21032;-75
2021/10/23 07:27:00;;;;;;;24.47;4.65;;;;;;;9.69;50.76;99346.41;1724086;82;21503;-74
2021/10/23 07:29:28;;;;;;;19.35;4.80;;;;;;;9.74;50.03;99339.39;1728164;82;21643;-74
2021/10/23 07:31:57;;;;;;;20.70;5.70;;;;;;;9.77;49.80;99341.50;1722556;82;21035;-76
2021/10/23 07:34:29;;;;;;;18.50;4.60;;;;;;;9.79;49.82;99346.68;1725117;82;21306;-75
2021/10/23 07:37:04;;;;;;;16.73;4.67;;;;;;;9.85;49.91;99349.52;1725339;82;20973;-75
2021/10/23 07:39:32;;;;;;;15.45;4.70;;;;;;;9.92;49.77;99351.25;1698380;82;21064;-73
2021/10/23 07:42:05;;;;;;;12.85;5.25;;;;;;;9.98;49.78;99365.09;1734630;82;21072;-73
2021/10/23 07:44:31;;;;;;;21.87;5.80;;;;;;;10.08;49.52;99357.69;1728812;82;21084;-74
2021/10/23 07:47:02;;;;;;;24.25;6.80;;;;;;;10.14;49.54;99352.82;1721741;82;21545;-74
2021/10/23 07:49:30;;;;;;;15.83;4.20;;;;;;;10.21;49.67;99351.78;1732604;82;21060;-73
2021/10/23 07:51:56;;;;;;;14.73;5.35;;;;;;;10.30;49.45;99362.82;1695136;82;21722;-73
2021/10/23 07:54:36;;;;;;;15.32;4.97;;;;;;;10.38;49.53;99357.06;1709105;82;21036;-74
2021/10/23 07:57:07;;;;;;;19.65;5.08;;;;;;;10.50;49.02;99364.72;1726399;82;21068;-73
2021/10/23 07:59:35;;;;;;;11.83;4.37;;;;;;;10.63;48.96;99365.72;1722059;82;21004;-77
2021/10/23 08:02:06;;;;;;;14.20;3.92;;;;;;;10.76;49.03;99370.80;1725494;82;21024;-74
2021/10/23 08:04:32;;;;;;;11.57;3.98;;;;;;;10.87;48.13;99373.46;1725124;82;21153;-73
2021/10/23 08:07:08;;;;;;;9.45;3.70;;;;;;;10.93;48.06;99370.80;1726259;82;21500;-75
2021/10/23 08:09:39;;;;;;;12.53;5.00;;;;;;;11.02;48.06;99376.28;1725615;82;21048;-75
2021/10/23 08:12:09;;;;;;;8.80;4.25;;;;;;;11.19;47.97;99374.06;1727289;82;21084;-75
2021/10/23 08:14:44;;;;;;;21.95;3.60;;;;;;;11.36;47.60;99376.53;1722019;82;21044;-74
2021/10/23 08:17:12;;;;;;;23.07;3.87;;;;;;;11.43;46.98;99387.88;1724018;82;21111;-74
2021/10/23 08:19:41;;;;;;;19.62;2.80;;;;;;;11.46;46.75;99391.13;1773671;80;21030;-76
2021/10/23 08:22:13;;;;;;;9.30;2.87;;;;;;;11.33;46.56;99390.98;1772263;80;21033;-72
2021/10/23 08:24:44;;;;;;;12.00;3.20;;;;;;;11.13;46.70;99389.17;1773053;80;21002;-77
2021/10/23 08:27:15;;;;;;;23.87;4.28;;;;;;;11.13;47.33;99397.44;1775294;79;20979;-75
2021/10/23 08:29:46;;;;;;;28.10;4.53;;;;;;;11.22;46.90;99409.84;1753583;81;21002;-73
2021/10/23 08:32:24;;;;;;;11.78;3.40;;;;;;;11.35;46.27;99403.06;1771982;80;21026;-75
2021/10/23 08:34:55;;;;;;;23.80;4.28;;;;;;;11.44;46.15;99405.24;1705488;82;21013;-73
2021/10/23 08:37:24;;;;;;;10.53;3.37;;;;;;;11.46;45.83;99415.95;1774162;80;21058;-75
2021/10/23 08:39:56;;;;;;;13.72;3.62;;;;;;;11.40;46.01;99414.74;1696562;84;21026;-74
2021/10/23 08:42:22;;;;;;;6.35;2.62;;;;;;;11.45;46.25;99413.75;1774117;80;21548;-75
2021/10/23 08:44:50;;;;;;;17.92;3.55;;;;;;;11.46;46.01;99429.74;1771747;80;21129;-75
2021/10/23 08:47:27;;;;;;;11.38;2.90;;;;;;;11.37;45.92;99427.81;1773857;80;21023;-75
2021/10/23 08:49:57;;;;;;;13.85;3.62;;;;;;;11.18;45.74;99435.88;1775224;80;21543;-77
2021/10/23 08:52:27;;;;;;;21.35;3.75;;;;;;;11.09;46.33;99435.06;1773258;80;21701;-74
2021/10/23 08:55:08;;;;;;;15.65;4.62;;;;;;;11.10;46.63;99426.23;1773582;79;21542;-76
2021/10/23 08:57:36;;;;;;;10.90;3.87;;;;;;;11.12;46.81;99433.06;1747584;81;21042;-75
2021/10/23 09:00:12;;;;;;;12.37;3.55;;;;;;;11.28;46.71;99446.31;1763659;80;21025;-74
2021/10/23 09:02:42;;;;;;;23.47;4.28;;;;;;;11.38;46.12;99439.67;1722332;82;21032;-73
2021/10/23 09:05:11;;;;;;;14.65;3.05;;;;;;;11.42;45.89;99451.09;1771829;80;21022;-72
2021/10/23 09:07:52;;;;;;;15.20;3.27;;;;;;;11.46;45.51;99439.40;1751508;80;22132;-76
2021/10/23 09:10:34;;;;;;;10.65;2.80;;;;;;;11.46;45.95;99443.54;1760624;79;21016;-75
2021/10/23 09:13:07;;;;;;;10.80;2.52;;;;;;;11.50;45.93;99451.41;1715472;80;21016;-72
2021/10/23 09:15:40;;;;;;;12.98;3.55;;;;;;;11.56;45.96;99452.29;1771586;80;21546;-72
2021/10/23 09:18:16;;;;;;;10.20;2.77;;;;;;;11.69;45.81;99462.88;1752222;80;20983;-75
2021/10/23 09:20:55;;;;;;;8.83;2.90;;;;;;;11.83;45.29;99450.81;1723527;82;21262;-72
2021/10/23 09:23:28;;;;;;;12.13;2.90;;;;;;;11.98;45.20;99450.02;1731006;81;21006;-73
2021/10/23 09:25:57;;;;;;;11.30;3.33;;;;;;;12.09;44.46;99453.27;1725060;82;21009;-75
2021/10/23 09:28:34;;;;;;;12.45;2.70;;;;;;;12.12;44.05;99452.03;1760126;80;21038;-74
2021/10/23 09:31:08;;;;;;;10.13;3.37;;;;;;;12.17;43.99;99454.61;1768974;80;21478;-72
2021/10/23 09:33:36;;;;;;;9.90;3.55;;;;;;;12.24;43.66;99459.61;1703391;83;21089;-76
2021/10/23 09:36:07;;;;;;;13.72;2.90;;;;;;;12.30;43.13;99447.78;1778254;79;21034;-73
2021/10/23 09:38:36;;;;;;;8.03;2.90;;;;;;;12.34;43.36;99454.83;1773993;80;21573;-74
2021/10/23 09:41:25;;;;;;;13.68;3.22;;;;;;;12.33;42.93;99454.05;1688872;84;21162;-75
2021/10/23 09:44:15;;;;;;;10.40;3.22;;;;;;;12.28;42.95;99455.61;1687899;84;21061;-74
2021/10/23 09:46:54;;;;;;;13.68;3.52;;;;;;;12.08;43.22;99457.14;1767587;80;21038;-72
2021/10/23 09:49:29;;;;;;;15.93;3.52;;;;;;;11.84;43.70;99453.81;1766115;80;20954;-75
2021/10/23 09:52:07;;;;;;;13.45;3.17;;;;;;;11.72;43.90;99465.53;1773104;80;21492;-73
2021/10/23 09:54:46;;;;;;;12.18;4.15;;;;;;;11.62;44.17;99461.19;1778663;79;21045;-73
2021/10/23 09:57:17;;;;;;;10.10;2.70;;;;;;;11.48;44.17;99461.96;1765915;80;21026;-75
2021/10/23 09:59:43;;;;;;;9.73;3.12;;;;;;;11.25;44.57;99460.77;1718114;82;21121;-74
2021/10/23 10:02:14;;;;;;;13.93;3.10;;;;;;;11.16;44.97;99462.96;1765592;80;21512;-72
2021/10/23 10:04:46;;;;;;;7.10;2.55;;;;;;;11.12;45.56;99466.14;1707308;80;21061;-73
2021/10/23 10:07:18;;;;;;;10.08;2.95;;;;;;;11.17;45.78;99470.09;1750909;81;21018;-74
2021/10/23 10:09:47;;;;;;;10.50;3.50;;;;;;;11.27;45.57;99470.34;1764013;80;21089;-73
2021/10/23 10:12:20;;;;;;;9.75;3.22;;;;;;;11.39;45.25;99468.86;1767547;80;21146;-72
2021/10/23 10:14:56;;;;;;;8.48;2.85;;;;;;;11.56;45.19;99474.92;1728553;82;21112;-75
2021/10/23 10:17:27;;;;;;;6.62;2.72;;;;;;;11.74;44.57;99462.44;1778989;79;20987;-74
2021/10/23 10:20:02;;;;;;;18.12;3.27;;;;;;;11.90;43.95;99469.63;1788907;79;21031;-74
2021/10/23 10:22:31;;;;;;;8.25;3.15;;;;;;;12.08;44.18;99472.34;1784631;79;20995;-74
2021/10/23 10:25:23;;;;;;;8.03;2.30;;;;;;;12.32;42.95;99474.50;1752924;81;21006;-74
2021/10/23 10:27:53;;;;;;;18.60;3.83;;;;;;;12.69;42.03;99456.02;1785614;79;21045;-74
2021/10/23 10:30:28;;;;;;;13.65;3.35;;;;;;;13.15;40.96;99482.39;1790268;79;21026;-74
2021/10/23 10:33:24;;;;;;;7.35;2.70;;;;;;;13.47;40.72;99477.81;1791221;79;21081;-74
2021/10/23 10:36:35;;;;;;;12.03;3.30;;;;;;;13.92;40.16;99477.38;1725125;82;21047;-76
2021/10/23 10:39:24;;;;;;;19.45;3.30;;;;;;;14.38;39.32;99472.31;1723595;82;21358;-75
2021/10/23 10:43:10;;;;;;;;;;;;;;;;;;;;;
2021/10/23 10:45:41;;;;;;;16.95;2.92;;;;;;;14.07;36.46;99478.66;1693090;83;21003;-73
2021/10/23 10:48:32;;;;;;;15.78;3.02;;;;;;;13.34;38.03;99489.39;1732537;82;21064;-74
2021/10/23 10:51:02;;;;;;;8.08;2.00;;;;;;;12.87;38.16;99484.91;1731742;80;21542;-74
2021/10/23 10:53:33;;;;;;;13.58;2.25;;;;;;;12.41;38.52;99496.01;1699322;83;21076;-74
2021/10/23 10:56:10;;;;;;;14.13;3.15;;;;;;;12.17;39.43;99493.28;1734755;82;21059;-73
2021/10/23 10:58:55;;;;;;;9.68;2.30;;;;;;;12.21;39.39;99495.37;1735633;82;21055;-74
2021/10/23 11:01:34;;;;;;;21.40;2.42;;;;;;;12.17;39.29;99501.56;1732471;80;21088;-74
2021/10/23 11:04:11;;;;;;;13.28;2.12;;;;;;;12.04;39.38;99493.69;1702795;83;21087;-74
2021/10/23 11:06:52;;;;;;;12.73;2.52;;;;;;;11.89;39.16;99496.42;1732870;82;20996;-72
2021/10/23 11:09:30;;;;;;;6.83;2.40;;;;;;;11.74;39.54;99492.24;1730286;82;21480;-73
2021/10/23 11:12:05;;;;;;;5.70;2.35;;;;;;;11.60;39.60;99501.30;1685535;83;21018;-75
2021/10/23 11:14:35;;;;;;;14.38;3.12;;;;;;;11.43;39.71;99507.88;1735550;82;21012;-74
2021/10/23 11:17:13;;;;;;;14.83;3.25;;;;;;;11.39;40.09;99497.27;1731849;82;21063;-74
2021/10/23 11:19:53;;;;;;;11.00;2.83;;;;;;;11.48;39.67;99494.48;1720971;81;21136;-74
2021/10/23 11:22:36;;;;;;;16.73;1.95;;;;;;;11.73;38.78;99492.58;1716179;82;20989;-75
2021/10/23 11:25:09;;;;;;;8.18;3.00;;;;;;;11.95;38.13;99495.68;1718187;82;21080;-74
2021/10/23 11:27:46;;;;;;;8.43;2.33;;;;;;;12.17;38.33;99498.80;1719666;82;21505;-74
2021/10/23 11:30:31;;;;;;;15.72;3.22;;;;;;;12.41;37.70;99505.67;1720134;82;21410;-73
2021/10/23 11:33:09;;;;;;;16.55;2.58;;;;;;;12.59;37.81;99511.09;1720271;82;21133;-72
2021/10/23 11:35:51;;;;;;;11.80;2.40;;;;;;;12.58;37.64;99510.87;1719813;82;21041;-73
2021/10/23 11:38:26;;;;;;;6.67;1.67;;;;;;;12.31;37.67;99519.86;1720511;82;21028;-74
2021/10/23 11:40:57;;;;;;;7.72;2.65;;;;;;;12.02;38.23;99520.84;1719160;82;21025;-74
2021/10/23 11:43:25;;;;;;;14.15;2.50;;;;;;;11.68;38.66;99524.75;1692401;82;21580;-73
2021/10/23 11:45:51;;;;;;;15.48;3.35;;;;;;;11.41;39.14;99521.77;1717565;82;21123;-73
2021/10/23 11:48:21;;;;;;;7.65;3.02;;;;;;;11.34;39.58;99527.78;1716337;82;21052;-73
2021/10/23 11:50:51;;;;;;;14.18;3.12;;;;;;;11.38;39.94;99520.46;1692412;82;21569;-73
2021/10/23 11:53:31;;;;;;;11.00;3.35;;;;;;;11.56;39.39;99525.41;1678115;84;21040;-72
2021/10/23 11:56:10;;;;;;;6.95;2.60;;;;;;;11.83;38.93;99528.11;1696051;82;21009;-71